createdAt,value
2018-11-29T00:00:41.400Z,3.93
2018-11-29T00:03:10.881Z,4.03
2018-11-29T00:05:39.589Z,3.30
2018-11-29T00:08:09.459Z,3.97
2018-11-29T00:10:38.896Z,3.60
2018-11-29T00:13:08.752Z,4.87
2018-11-29T00:15:36.420Z,4.07
2018-11-29T00:18:04.116Z,4.27
2018-11-29T00:20:32.164Z,4.20
2018-11-29T00:22:59.964Z,3.87
2018-11-29T00:25:30.319Z,4.10
2018-11-29T00:27:58.437Z,3.70
2018-11-29T00:30:26.128Z,4.57
2018-11-29T00:32:54.582Z,4.40
2018-11-29T00:35:22.198Z,3.80
2018-11-29T00:37:58.430Z,4.27
2018-11-29T00:40:26.163Z,4.53
2018-11-29T00:42:53.851Z,4.23
2018-11-29T00:45:23.223Z,3.53
2018-11-29T00:47:51.276Z,4.17
2018-11-29T00:50:19.342Z,3.67
2018-11-29T00:52:47.791Z,3.80
2018-11-29T00:55:17.262Z,4.23
2018-11-29T00:57:44.895Z,4.30
2018-11-29T01:00:19.032Z,5.10
2018-11-29T01:02:46.674Z,4.63
2018-11-29T01:05:14.382Z,3.93
2018-11-29T01:07:42.209Z,4.13
2018-11-29T01:10:12.670Z,4.10
2018-11-29T01:12:40.635Z,3.90
2018-11-29T01:15:10.431Z,4.63
2018-11-29T01:17:38.051Z,3.30
2018-11-29T01:20:08.256Z,3.93
2018-11-29T01:22:35.871Z,3.53
2018-11-29T01:25:03.517Z,3.10
2018-11-29T01:27:31.207Z,4.10
2018-11-29T01:29:58.872Z,4.60
2018-11-29T01:32:26.530Z,3.90
2018-11-29T01:34:54.183Z,3.87
2018-11-29T01:37:21.946Z,3.77
2018-11-29T01:39:49.567Z,3.60
2018-11-29T01:42:17.203Z,3.40
2018-11-29T01:44:44.872Z,4.17
2018-11-29T01:47:12.503Z,3.70
2018-11-29T01:49:40.197Z,3.60
2018-11-29T01:52:07.819Z,3.63
2018-11-29T01:54:35.484Z,4.07
2018-11-29T01:57:03.121Z,3.73
2018-11-29T01:59:30.812Z,3.53
2018-11-29T02:01:58.473Z,3.20
2018-11-29T02:04:26.118Z,4.07
2018-11-29T02:06:53.840Z,4.20
2018-11-29T02:09:21.478Z,3.23
2018-11-29T02:11:49.175Z,3.77
2018-11-29T02:14:16.863Z,4.03
2018-11-29T02:16:44.510Z,3.70
2018-11-29T02:19:18.724Z,2.80
2018-11-29T02:21:46.387Z,3.50
2018-11-29T02:24:14.035Z,3.50
2018-11-29T02:26:41.693Z,3.90
2018-11-29T02:29:09.339Z,3.53
2018-11-29T02:31:36.991Z,3.17
2018-11-29T02:34:05.430Z,3.50
2018-11-29T02:36:33.148Z,2.90
2018-11-29T02:39:00.903Z,3.57
2018-11-29T02:41:28.552Z,3.30
2018-11-29T02:43:56.226Z,3.40
2018-11-29T02:46:23.849Z,3.67
2018-11-29T02:48:51.546Z,4.27
2018-11-29T02:51:19.174Z,4.40
2018-11-29T02:53:46.783Z,3.70
2018-11-29T02:56:14.457Z,3.27
2018-11-29T02:58:42.210Z,3.63
2018-11-29T03:01:09.839Z,3.50
2018-11-29T03:03:37.490Z,3.33
2018-11-29T03:06:05.362Z,3.27
2018-11-29T03:08:32.985Z,3.53
2018-11-29T03:11:00.634Z,3.70
2018-11-29T03:13:28.292Z,3.47
2018-11-29T03:15:55.987Z,3.27
2018-11-29T03:18:23.630Z,3.07
2018-11-29T03:20:51.257Z,3.77
2018-11-29T03:23:18.962Z,3.40
2018-11-29T03:25:46.624Z,3.40
2018-11-29T03:28:14.287Z,3.50
2018-11-29T03:30:41.971Z,3.43
2018-11-29T03:33:09.650Z,3.10
2018-11-29T03:35:37.297Z,3.67
2018-11-29T03:38:04.988Z,3.30
2018-11-29T03:40:32.694Z,2.60
2018-11-29T03:43:00.313Z,3.60
2018-11-29T03:45:27.988Z,2.97
2018-11-29T03:47:55.608Z,3.27
2018-11-29T03:50:23.262Z,3.60
2018-11-29T03:52:50.944Z,2.90
2018-11-29T03:55:18.608Z,3.10
2018-11-29T03:57:46.248Z,2.97
2018-11-29T04:00:14.727Z,3.50
2018-11-29T04:02:42.573Z,3.00
2018-11-29T04:05:10.195Z,2.83
2018-11-29T04:07:37.874Z,3.40
2018-11-29T04:10:10.139Z,3.43
2018-11-29T04:12:37.841Z,2.77
2018-11-29T04:15:06.459Z,3.40
2018-11-29T04:17:40.372Z,3.60
2018-11-29T04:20:01.759Z,3.50
2018-11-29T04:22:29.415Z,3.77
2018-11-29T04:24:57.112Z,2.90
2018-11-29T04:27:24.759Z,3.90
2018-11-29T04:29:52.387Z,3.40
2018-11-29T04:32:20.049Z,3.60
2018-11-29T04:34:47.775Z,3.10
2018-11-29T04:37:15.413Z,3.30
2018-11-29T04:39:43.077Z,3.60
2018-11-29T04:42:10.768Z,3.40
2018-11-29T04:44:38.425Z,3.60
2018-11-29T04:47:06.055Z,3.00
2018-11-29T04:49:33.667Z,3.30
2018-11-29T04:52:01.339Z,2.67
2018-11-29T04:54:29.012Z,3.70
2018-11-29T04:56:56.651Z,3.00
2018-11-29T04:59:24.312Z,3.30
2018-11-29T05:01:51.927Z,3.57
2018-11-29T05:04:19.601Z,3.03
2018-11-29T05:06:47.368Z,3.83
2018-11-29T05:09:15.034Z,4.00
2018-11-29T05:11:42.687Z,3.17
2018-11-29T05:14:10.338Z,3.03
2018-11-29T05:16:37.995Z,2.73
2018-11-29T05:19:05.643Z,3.30
2018-11-29T05:21:33.382Z,4.00
2018-11-29T05:24:01.052Z,2.80
2018-11-29T05:26:28.712Z,3.30
2018-11-29T05:28:56.399Z,3.30
2018-11-29T05:31:24.166Z,3.17
2018-11-29T05:33:51.804Z,3.00
2018-11-29T05:36:19.437Z,3.10
2018-11-29T05:38:47.177Z,3.70
2018-11-29T05:41:14.807Z,2.90
2018-11-29T05:43:42.533Z,3.90
2018-11-29T05:46:10.458Z,3.37
2018-11-29T05:48:38.159Z,3.60
2018-11-29T05:51:05.805Z,3.40
2018-11-29T05:53:34.637Z,2.70
2018-11-29T05:56:02.273Z,3.47
2018-11-29T05:58:29.942Z,3.17
2018-11-29T06:01:00.105Z,2.70
2018-11-29T06:03:27.846Z,3.00
2018-11-29T06:05:55.461Z,2.80
2018-11-29T06:08:23.252Z,3.10
2018-11-29T06:10:50.945Z,3.23
2018-11-29T06:13:18.598Z,3.13
2018-11-29T06:15:46.270Z,3.20
2018-11-29T06:18:13.948Z,3.00
2018-11-29T06:20:41.661Z,3.57
2018-11-29T06:23:09.382Z,3.90
2018-11-29T06:25:37.046Z,3.30
2018-11-29T06:28:11.338Z,3.33
2018-11-29T06:30:39.025Z,4.07
2018-11-29T06:33:11.314Z,5.50
2018-11-29T06:35:41.222Z,4.20
2018-11-29T06:38:08.924Z,4.30
2018-11-29T06:40:36.745Z,4.50
2018-11-29T06:43:04.994Z,3.70
2018-11-29T06:45:33.017Z,4.00
2018-11-29T06:48:00.879Z,3.93
2018-11-29T06:50:29.338Z,3.90
2018-11-29T06:52:57.288Z,3.70
2018-11-29T06:55:25.893Z,3.83
2018-11-29T06:57:55.334Z,4.17
2018-11-29T07:00:27.136Z,4.10
2018-11-29T07:02:54.892Z,3.50
2018-11-29T07:05:22.566Z,3.50
2018-11-29T07:07:50.470Z,4.30
2018-11-29T07:10:22.727Z,3.87
2018-11-29T07:12:50.593Z,3.57
2018-11-29T07:15:18.243Z,3.50
2018-11-29T07:17:46.086Z,3.83
2018-11-29T07:20:14.867Z,4.03
2018-11-29T07:22:42.710Z,3.80
2018-11-29T07:25:10.594Z,3.40
2018-11-29T07:27:38.798Z,3.60
2018-11-29T07:30:11.099Z,4.33
2018-11-29T07:32:38.796Z,4.07
2018-11-29T07:35:07.351Z,4.23
2018-11-29T07:37:35.080Z,4.33
2018-11-29T07:40:03.826Z,4.73
2018-11-29T07:42:43.795Z,4.30
2018-11-29T07:45:12.893Z,4.03
2018-11-29T07:47:40.658Z,4.50
2018-11-29T07:50:15.211Z,3.27
2018-11-29T07:52:43.056Z,3.90
2018-11-29T07:55:14.085Z,3.77
2018-11-29T07:57:42.084Z,3.63
2018-11-29T08:00:11.933Z,4.00
2018-11-29T08:02:39.569Z,4.07
2018-11-29T08:05:08.572Z,3.73
2018-11-29T08:07:36.359Z,3.83
2018-11-29T08:10:05.207Z,4.47
2018-11-29T08:12:32.902Z,3.50
2018-11-29T08:15:00.594Z,3.70
2018-11-29T08:17:28.484Z,4.00
2018-11-29T08:19:56.276Z,3.47
2018-11-29T08:22:23.905Z,3.70
2018-11-29T08:24:51.568Z,4.00
2018-11-29T08:27:39.281Z,3.83
2018-11-29T08:30:09.246Z,3.90
2018-11-29T08:32:37.156Z,2.97
2018-11-29T08:35:05.122Z,3.97
2018-11-29T08:37:32.902Z,3.70
2018-11-29T08:40:00.592Z,3.30
2018-11-29T08:42:28.643Z,3.43
2018-11-29T08:44:56.348Z,3.00
2018-11-29T08:47:24.158Z,3.57
2018-11-29T08:49:51.872Z,3.77
2018-11-29T08:52:19.511Z,3.33
2018-11-29T08:54:47.211Z,3.70
2018-11-29T08:57:15.647Z,3.70
2018-11-29T08:59:42.608Z,3.50
2018-11-29T09:02:10.261Z,3.10
2018-11-29T09:04:58.460Z,4.23
2018-11-29T09:07:26.706Z,3.40
2018-11-29T09:09:54.446Z,3.80
2018-11-29T09:12:22.275Z,3.80
2018-11-29T09:14:49.913Z,3.43
2018-11-29T09:17:17.582Z,3.80
2018-11-29T09:19:45.245Z,3.63
2018-11-29T09:22:12.907Z,3.30
2018-11-29T09:24:40.614Z,3.20
2018-11-29T09:27:08.266Z,3.00
2018-11-29T09:29:36.035Z,3.70
2018-11-29T09:32:03.765Z,3.37
2018-11-29T09:34:33.353Z,3.80
2018-11-29T09:37:01.026Z,2.87
2018-11-29T09:39:28.720Z,2.80
2018-11-29T09:41:56.349Z,2.70
2018-11-29T09:44:24.203Z,3.13
2018-11-29T09:46:51.881Z,3.53
2018-11-29T09:49:19.689Z,3.53
2018-11-29T09:51:47.388Z,3.40
2018-11-29T09:54:15.214Z,3.30
2018-11-29T09:56:43.064Z,3.20
2018-11-29T09:59:10.785Z,3.20
2018-11-29T10:01:38.489Z,3.03
2018-11-29T10:04:09.556Z,3.47
2018-11-29T10:06:37.251Z,3.43
2018-11-29T10:09:08.020Z,3.00
2018-11-29T10:11:35.753Z,2.97
2018-11-29T10:16:37.591Z,3.40
2018-11-29T10:19:05.452Z,3.00
2018-11-29T10:21:33.102Z,2.50
2018-11-29T10:24:00.777Z,3.40
2018-11-29T10:26:28.481Z,3.57
2018-11-29T10:28:56.196Z,3.07
2018-11-29T10:31:23.964Z,3.23
2018-11-29T10:33:52.821Z,3.50
2018-11-29T10:36:20.610Z,2.87
2018-11-29T10:38:48.341Z,2.73
2018-11-29T10:41:15.996Z,3.07
2018-11-29T10:43:43.834Z,2.67
2018-11-29T10:46:11.516Z,3.30
2018-11-29T10:48:39.241Z,2.60
2018-11-29T10:51:07.119Z,3.27
2018-11-29T10:53:37.726Z,3.63
2018-11-29T10:56:02.957Z,3.27
2018-11-29T10:58:30.785Z,3.47
2018-11-29T11:01:03.987Z,2.90
2018-11-29T11:03:31.651Z,3.33
2018-11-29T11:05:59.452Z,3.50
2018-11-29T11:08:27.098Z,3.30
2018-11-29T11:10:54.801Z,3.87
2018-11-29T11:13:22.464Z,4.17
2018-11-29T11:15:50.120Z,3.90
2018-11-29T11:18:18.247Z,3.73
2018-11-29T11:20:46.192Z,3.37
2018-11-29T11:23:14.652Z,3.00
2018-11-29T11:25:42.512Z,3.20
2018-11-29T11:28:10.398Z,3.83
2018-11-29T11:30:40.613Z,3.30
2018-11-29T11:33:08.287Z,2.77
2018-11-29T11:35:36.208Z,3.40
2018-11-29T11:38:03.915Z,3.53
2018-11-29T11:40:31.703Z,2.93
2018-11-29T11:42:59.413Z,2.40
2018-11-29T11:45:28.008Z,3.30
2018-11-29T11:47:55.712Z,4.50
2018-11-29T11:50:24.127Z,4.63
2018-11-29T11:52:52.377Z,2.90
2018-11-29T11:55:20.090Z,3.17
2018-11-29T11:57:48.065Z,3.50
2018-11-29T12:00:23.331Z,3.43
2018-11-29T12:02:52.581Z,2.80
2018-11-29T12:05:20.315Z,3.67
2018-11-29T12:07:47.983Z,3.27
2018-11-29T12:10:15.977Z,3.03
2018-11-29T12:12:43.707Z,3.20
2018-11-29T12:15:12.416Z,4.97
2018-11-29T12:17:40.405Z,4.40
2018-11-29T12:20:09.797Z,4.43
2018-11-29T12:22:37.519Z,4.77
2018-11-29T12:25:06.552Z,4.17
2018-11-29T12:27:34.243Z,4.73
2018-11-29T12:30:02.015Z,3.47
2018-11-29T12:32:29.661Z,3.43
2018-11-29T12:34:57.288Z,4.30
2018-11-29T12:37:25.204Z,3.90
2018-11-29T12:39:52.844Z,4.30
2018-11-29T12:42:20.494Z,4.27
2018-11-29T12:44:48.254Z,4.13
2018-11-29T12:47:15.940Z,3.43
2018-11-29T12:49:43.584Z,4.00
2018-11-29T12:52:11.253Z,3.57
2018-11-29T12:54:38.955Z,3.40
2018-11-29T12:57:06.612Z,3.47
2018-11-29T12:59:34.416Z,3.30
2018-11-29T13:02:02.137Z,3.50
2018-11-29T13:04:29.794Z,3.00
2018-11-29T13:06:57.494Z,3.50
2018-11-29T13:09:25.143Z,3.83
2018-11-29T13:11:52.918Z,3.30
2018-11-29T13:14:20.523Z,4.43
2018-11-29T13:16:48.250Z,3.90
2018-11-29T13:19:16.111Z,3.60
2018-11-29T13:21:43.780Z,3.70
2018-11-29T13:24:11.524Z,3.97
2018-11-29T13:26:39.164Z,4.27
2018-11-29T13:29:06.784Z,3.60
2018-11-29T13:31:34.438Z,2.90
2018-11-29T13:34:02.059Z,3.23
2018-11-29T13:36:29.779Z,3.07
2018-11-29T13:38:57.375Z,3.70
2018-11-29T13:41:25.019Z,3.63
2018-11-29T13:43:52.763Z,3.50
2018-11-29T13:46:20.443Z,2.80
2018-11-29T13:48:48.158Z,3.30
2018-11-29T13:51:15.806Z,3.50
2018-11-29T13:53:43.604Z,3.03
2018-11-29T13:56:11.265Z,3.73
2018-11-29T13:58:39.021Z,4.20
2018-11-29T14:01:06.809Z,4.10
2018-11-29T14:03:34.688Z,3.70
2018-11-29T14:06:02.327Z,5.23
2018-11-29T14:08:30.124Z,4.43
2018-11-29T14:10:58.091Z,4.07
2018-11-29T14:13:25.487Z,3.90
2018-11-29T14:15:53.169Z,3.87
2018-11-29T14:18:20.826Z,3.00
2018-11-29T14:20:48.669Z,4.10
2018-11-29T14:23:16.290Z,3.50
2018-11-29T14:25:43.908Z,4.00
2018-11-29T14:28:11.628Z,3.90
2018-11-29T14:30:39.298Z,3.03
2018-11-29T14:33:07.350Z,3.40
2018-11-29T14:35:34.999Z,3.57
2018-11-29T14:38:02.669Z,3.53
2018-11-29T14:40:32.741Z,3.03
2018-11-29T14:43:00.372Z,3.87
2018-11-29T14:45:28.141Z,3.90
2018-11-29T14:47:56.014Z,2.87
2018-11-29T14:50:38.505Z,3.70
2018-11-29T14:53:07.248Z,3.53
2018-11-29T14:55:35.362Z,3.40
2018-11-29T14:58:03.063Z,3.20
2018-11-29T15:00:30.686Z,3.23
2018-11-29T15:02:59.013Z,2.40
2018-11-29T15:05:27.848Z,3.40
2018-11-29T15:07:55.500Z,3.07
2018-11-29T15:10:23.272Z,3.23
2018-11-29T15:12:50.948Z,2.90
2018-11-29T15:15:18.605Z,2.90
2018-11-29T15:17:47.068Z,3.10
2018-11-29T15:20:18.990Z,2.80
2018-11-29T15:22:47.328Z,2.97
2018-11-29T15:25:14.322Z,2.73
2018-11-29T15:27:42.028Z,3.07
2018-11-29T15:30:12.953Z,3.13
2018-11-29T15:32:40.626Z,2.87
2018-11-29T15:35:08.512Z,2.70
2018-11-29T15:37:36.365Z,3.03
2018-11-29T15:40:05.642Z,3.00
2018-11-29T15:42:33.511Z,3.20
2018-11-29T15:45:01.200Z,3.00
2018-11-29T15:47:28.842Z,2.97
2018-11-29T15:49:56.890Z,2.80
2018-11-29T15:52:24.541Z,2.33
2018-11-29T15:54:52.273Z,2.37
2018-11-29T15:57:19.908Z,2.50
2018-11-29T15:59:47.557Z,3.07
2018-11-29T16:02:15.203Z,2.80
2018-11-29T16:04:42.844Z,3.80
2018-11-29T16:07:10.496Z,2.80
2018-11-29T16:09:38.271Z,3.10
2018-11-29T16:12:06.087Z,2.63
2018-11-29T16:14:33.734Z,2.73
2018-11-29T16:17:01.372Z,2.97
2018-11-29T16:19:29.007Z,2.67
2018-11-29T16:21:56.696Z,3.03
2018-11-29T16:24:24.264Z,2.90
2018-11-29T16:26:52.007Z,2.33
2018-11-29T16:29:19.606Z,2.53
2018-11-29T16:31:47.294Z,2.73
2018-11-29T16:34:14.949Z,2.80
2018-11-29T16:36:42.578Z,3.00
2018-11-29T16:39:10.355Z,2.90
2018-11-29T16:41:37.972Z,2.90
2018-11-29T16:44:05.634Z,2.60
2018-11-29T16:46:33.264Z,3.20
2018-11-29T16:49:02.893Z,2.73
2018-11-29T16:51:28.724Z,3.10
2018-11-29T16:53:56.390Z,2.47
2018-11-29T16:56:24.101Z,2.50
2018-11-29T16:58:51.740Z,2.30
2018-11-29T17:01:19.370Z,2.40
2018-11-29T17:03:47.067Z,2.60
2018-11-29T17:06:14.721Z,2.70
2018-11-29T17:08:42.422Z,2.23
2018-11-29T17:11:10.102Z,2.60
2018-11-29T17:13:37.728Z,2.70
2018-11-29T17:16:05.901Z,3.00
2018-11-29T17:18:33.559Z,2.60
2018-11-29T17:21:01.241Z,2.27
2018-11-29T17:23:28.895Z,2.87
2018-11-29T17:25:56.603Z,2.20
2018-11-29T17:28:24.235Z,2.20
2018-11-29T17:30:51.896Z,2.47
2018-11-29T17:33:19.547Z,2.40
2018-11-29T17:35:47.177Z,2.20
2018-11-29T17:38:14.810Z,2.43
2018-11-29T17:40:42.413Z,2.27
2018-11-29T17:43:10.085Z,2.53
2018-11-29T17:45:37.920Z,2.60
2018-11-29T17:48:08.832Z,2.20
2018-11-29T17:50:40.695Z,2.50
2018-11-29T17:53:08.530Z,2.77
2018-11-29T17:55:36.252Z,2.30
2018-11-29T17:58:07.176Z,2.60
2018-11-29T18:00:34.837Z,2.63
2018-11-29T18:03:02.732Z,2.30
2018-11-29T18:05:30.433Z,2.50
2018-11-29T18:07:58.111Z,2.67
2018-11-29T18:10:27.079Z,2.80
2018-11-29T18:12:57.349Z,2.70
2018-11-29T18:15:26.372Z,2.33
2018-11-29T18:17:54.056Z,2.30
2018-11-29T18:20:21.644Z,2.67
2018-11-29T18:22:49.285Z,2.60
2018-11-29T18:25:17.204Z,2.50
2018-11-29T18:27:46.045Z,2.40
2018-11-29T18:30:14.726Z,2.50
2018-11-29T18:32:42.376Z,2.63
2018-11-29T18:35:11.447Z,3.83
2018-11-29T18:37:40.490Z,3.40
2018-11-29T18:40:10.021Z,3.33
2018-11-29T18:42:37.755Z,3.43
2018-11-29T18:45:08.232Z,3.07
2018-11-29T18:47:35.819Z,3.00
2018-11-29T18:50:03.512Z,2.60
2018-11-29T18:52:31.134Z,2.40
2018-11-29T18:55:00.379Z,2.77
2018-11-29T18:57:28.296Z,2.67
2018-11-29T18:59:56.952Z,3.07
2018-11-29T19:02:24.810Z,3.07
2018-11-29T19:04:52.472Z,2.27
2018-11-29T19:07:20.394Z,2.30
2018-11-29T19:09:48.013Z,2.70
2018-11-29T19:12:15.659Z,3.37
2018-11-29T19:14:44.256Z,2.90
2018-11-29T19:17:10.948Z,3.10
2018-11-29T19:19:38.659Z,2.87
2018-11-29T19:22:06.405Z,2.50
2018-11-29T19:24:34.035Z,2.57
2018-11-29T19:27:01.638Z,2.70
2018-11-29T19:29:29.296Z,3.20
2018-11-29T19:31:56.914Z,2.50
2018-11-29T19:34:24.608Z,3.20
2018-11-29T19:36:52.278Z,2.47
2018-11-29T19:39:19.942Z,3.03
2018-11-29T19:41:47.583Z,3.67
2018-11-29T19:44:15.256Z,2.87
2018-11-29T19:46:42.932Z,2.73
2018-11-29T19:49:10.714Z,2.83
2018-11-29T19:51:38.522Z,3.63
2018-11-29T19:54:06.154Z,2.70
2018-11-29T19:56:33.817Z,3.50
2018-11-29T19:59:01.486Z,2.90
2018-11-29T20:01:29.168Z,2.27
2018-11-29T20:03:56.825Z,2.40
2018-11-29T20:06:24.488Z,2.90
2018-11-29T20:08:52.257Z,3.03
2018-11-29T20:11:19.929Z,3.40
2018-11-29T20:13:47.617Z,2.30
2018-11-29T20:16:15.279Z,2.90
2018-11-29T20:18:42.916Z,2.80
2018-11-29T20:21:10.572Z,2.60
2018-11-29T20:23:38.482Z,2.90
2018-11-29T20:26:06.091Z,2.80
2018-11-29T20:28:33.713Z,2.73
2018-11-29T20:31:01.361Z,3.07
2018-11-29T20:33:29.001Z,2.43
2018-11-29T20:35:56.733Z,2.80
2018-11-29T20:38:24.364Z,2.20
2018-11-29T20:40:52.002Z,2.43
2018-11-29T20:43:19.674Z,2.80
2018-11-29T20:45:51.602Z,2.20
2018-11-29T20:48:21.575Z,2.80
2018-11-29T20:50:49.605Z,2.40
2018-11-29T20:53:19.176Z,2.70
2018-11-29T20:55:46.862Z,2.43
2018-11-29T20:58:14.506Z,2.40
2018-11-29T21:00:42.169Z,2.73
2018-11-29T21:03:10.216Z,2.63
2018-11-29T21:05:39.762Z,2.60
2018-11-29T21:08:08.257Z,2.23
2018-11-29T21:10:36.011Z,2.87
2018-11-29T21:13:06.103Z,2.70
2018-11-29T21:15:35.820Z,2.03
2018-11-29T21:18:03.495Z,2.40
2018-11-29T21:20:31.117Z,2.20
2018-11-29T21:22:59.208Z,2.37
2018-11-29T21:25:26.851Z,2.30
2018-11-29T21:27:54.496Z,2.80
2018-11-29T21:30:22.165Z,2.40
2018-11-29T21:32:50.068Z,2.47
2018-11-29T21:35:21.611Z,2.57
2018-11-29T21:37:50.084Z,2.33
2018-11-29T21:40:22.229Z,2.40
2018-11-29T21:42:50.046Z,2.40
2018-11-29T21:45:17.672Z,3.10
2018-11-29T21:47:45.303Z,2.33
2018-11-29T21:50:12.978Z,2.17
2018-11-29T21:52:40.659Z,2.30
2018-11-29T21:55:08.420Z,2.53
2018-11-29T21:57:36.170Z,2.77
2018-11-29T22:00:08.659Z,2.13
2018-11-29T22:02:41.639Z,2.53
2018-11-29T22:05:04.483Z,2.63
2018-11-29T22:07:32.229Z,2.83
2018-11-29T22:09:59.916Z,2.03
2018-11-29T22:12:27.725Z,2.37
2018-11-29T22:14:55.317Z,2.50
2018-11-29T22:17:22.971Z,2.50
2018-11-29T22:19:50.633Z,2.00
2018-11-29T22:22:18.322Z,1.90
2018-11-29T22:24:45.968Z,2.30
2018-11-29T22:27:13.655Z,2.30
2018-11-29T22:29:41.263Z,2.20
2018-11-29T22:32:08.938Z,2.30
2018-11-29T22:34:36.558Z,2.20
2018-11-29T22:37:04.237Z,2.20
2018-11-29T22:39:31.989Z,2.03
2018-11-29T22:41:59.679Z,2.80
2018-11-29T22:44:27.458Z,2.17
2018-11-29T22:46:55.123Z,2.27
2018-11-29T22:49:22.767Z,3.90
2018-11-29T22:51:50.556Z,1.80
2018-11-29T22:54:18.168Z,2.87
2018-11-29T22:56:45.851Z,2.20
2018-11-29T22:59:13.548Z,2.53
2018-11-29T23:01:41.313Z,2.13
2018-11-29T23:04:08.984Z,2.73
2018-11-29T23:06:36.605Z,1.90
2018-11-29T23:09:06.059Z,2.20
2018-11-29T23:11:33.701Z,1.90
2018-11-29T23:14:01.400Z,1.90
2018-11-29T23:16:29.046Z,2.70
2018-11-29T23:18:56.693Z,1.97
2018-11-29T23:21:24.353Z,2.10
2018-11-29T23:23:51.971Z,1.90
2018-11-29T23:26:19.659Z,2.53
2018-11-29T23:28:47.289Z,3.30
2018-11-29T23:31:14.948Z,2.27
2018-11-29T23:33:42.596Z,2.90
2018-11-29T23:45:17.165Z,2.47
2018-11-29T23:47:45.093Z,2.03
2018-11-29T23:50:14.744Z,2.63
2018-11-29T23:52:45.492Z,2.47
